createdAt,value
2018-08-03T00:01:13.581Z,26.21
2018-08-03T00:03:39.593Z,26.21
2018-08-03T00:06:05.599Z,26.21
2018-08-03T00:08:31.614Z,26.21
2018-08-03T00:10:57.656Z,26.20
2018-08-03T00:13:23.664Z,26.20
2018-08-03T00:15:49.685Z,26.20
2018-08-03T00:18:15.692Z,26.20
2018-08-03T00:20:41.700Z,26.20
2018-08-03T00:23:07.707Z,26.19
2018-08-03T00:25:33.715Z,26.20
2018-08-03T00:27:59.726Z,26.19
2018-08-03T00:30:25.746Z,26.19
2018-08-03T00:32:51.754Z,26.19
2018-08-03T00:35:17.768Z,26.19
2018-08-03T00:37:43.782Z,26.19
2018-08-03T00:40:09.800Z,26.18
2018-08-03T00:42:35.814Z,26.18
2018-08-03T00:45:01.825Z,26.18
2018-08-03T00:47:27.831Z,26.18
2018-08-03T00:49:53.846Z,26.17
2018-08-03T00:52:19.944Z,26.17
2018-08-03T00:54:45.968Z,26.17
2018-08-03T00:57:12.004Z,26.17
2018-08-03T00:59:38.014Z,26.17
2018-08-03T01:02:04.028Z,26.16
2018-08-03T01:04:30.070Z,26.16
2018-08-03T01:06:56.078Z,26.16
2018-08-03T01:09:22.083Z,26.17
2018-08-03T01:11:48.103Z,26.17
2018-08-03T01:14:14.125Z,26.16
2018-08-03T01:16:40.132Z,26.17
2018-08-03T01:19:06.142Z,26.16
2018-08-03T01:21:32.160Z,26.16
2018-08-03T01:23:58.182Z,26.16
2018-08-03T01:26:24.193Z,26.15
2018-08-03T01:28:50.210Z,26.15
2018-08-03T01:31:16.245Z,26.15
2018-08-03T01:33:42.254Z,26.16
2018-08-03T01:36:08.302Z,26.15
2018-08-03T01:38:34.303Z,26.15
2018-08-03T01:41:00.305Z,26.15
2018-08-03T01:43:26.319Z,26.15
2018-08-03T01:45:52.330Z,26.15
2018-08-03T01:48:18.334Z,26.15
2018-08-03T01:50:44.343Z,26.15
2018-08-03T01:53:10.354Z,26.15
2018-08-03T01:55:36.362Z,26.15
2018-08-03T01:58:02.380Z,26.15
2018-08-03T02:00:28.436Z,26.14
2018-08-03T02:02:54.454Z,26.14
2018-08-03T02:05:20.466Z,26.14
2018-08-03T02:07:46.479Z,26.14
2018-08-03T02:10:12.499Z,26.14
2018-08-03T02:12:38.507Z,26.14
2018-08-03T02:15:04.522Z,26.14
2018-08-03T02:17:30.534Z,26.14
2018-08-03T02:19:56.553Z,26.14
2018-08-03T02:22:22.567Z,26.13
2018-08-03T02:24:48.575Z,26.13
2018-08-03T02:27:14.637Z,26.13
2018-08-03T02:29:40.613Z,26.13
2018-08-03T02:32:06.629Z,26.13
2018-08-03T02:34:32.640Z,26.13
2018-08-03T02:36:58.658Z,26.13
2018-08-03T02:39:24.669Z,26.12
2018-08-03T02:41:50.676Z,26.12
2018-08-03T02:44:16.694Z,26.13
2018-08-03T02:46:42.714Z,26.12
2018-08-03T02:49:08.730Z,26.13
2018-08-03T02:51:34.753Z,26.12
2018-08-03T02:54:00.779Z,26.12
2018-08-03T02:56:26.784Z,26.13
2018-08-03T02:58:52.794Z,26.12
2018-08-03T03:01:18.843Z,26.12
2018-08-03T03:03:44.850Z,26.11
2018-08-03T03:06:10.854Z,26.11
2018-08-03T03:08:36.888Z,26.12
2018-08-03T03:11:02.900Z,26.11
2018-08-03T03:13:28.910Z,26.11
2018-08-03T03:15:54.925Z,26.11
2018-08-03T03:18:20.937Z,26.12
2018-08-03T03:20:46.940Z,26.11
2018-08-03T03:23:12.952Z,26.10
2018-08-03T03:25:38.956Z,26.10
2018-08-03T03:28:04.965Z,26.11
2018-08-03T03:30:30.999Z,26.11
2018-08-03T03:32:57.033Z,26.10
2018-08-03T03:35:23.044Z,26.10
2018-08-03T03:37:49.056Z,26.11
2018-08-03T03:40:15.073Z,26.10
2018-08-03T03:42:41.092Z,26.09
2018-08-03T03:45:07.103Z,26.11
2018-08-03T03:47:33.119Z,26.10
2018-08-03T03:49:59.135Z,26.11
2018-08-03T03:52:25.144Z,26.10
2018-08-03T03:54:51.157Z,26.10
2018-08-03T03:57:17.176Z,26.09
2018-08-03T03:59:43.180Z,26.09
2018-08-03T04:02:09.229Z,26.10
2018-08-03T04:04:35.204Z,26.10
2018-08-03T04:07:01.321Z,26.10
2018-08-03T04:09:27.329Z,26.09
2018-08-03T04:11:53.373Z,26.09
2018-08-03T04:14:19.399Z,26.09
2018-08-03T04:16:45.405Z,26.09
2018-08-03T04:19:11.434Z,26.09
2018-08-03T04:21:37.444Z,26.10
2018-08-03T04:24:03.453Z,26.10
2018-08-03T04:26:29.461Z,26.10
2018-08-03T04:28:55.474Z,26.11
2018-08-03T04:31:21.484Z,26.13
2018-08-03T04:33:47.489Z,26.12
2018-08-03T04:36:13.607Z,26.12
2018-08-03T04:38:39.608Z,26.11
2018-08-03T04:41:05.654Z,26.13
2018-08-03T04:43:31.691Z,26.15
2018-08-03T04:45:57.701Z,26.15
2018-08-03T04:48:23.712Z,26.16
2018-08-03T04:50:49.724Z,26.16
2018-08-03T04:53:15.734Z,26.16
2018-08-03T04:55:41.748Z,26.16
2018-08-03T04:58:07.754Z,26.17
2018-08-03T05:00:33.772Z,26.17
2018-08-03T05:02:59.775Z,26.17
2018-08-03T05:05:25.786Z,26.18
2018-08-03T05:07:51.825Z,26.17
2018-08-03T05:10:17.830Z,26.18
2018-08-03T05:12:43.835Z,26.18
2018-08-03T05:15:09.855Z,26.19
2018-08-03T05:17:35.865Z,26.18
2018-08-03T05:20:01.880Z,26.17
2018-08-03T05:22:27.903Z,26.17
2018-08-03T05:24:53.916Z,26.17
2018-08-03T05:27:19.934Z,26.17
2018-08-03T05:29:45.949Z,26.16
2018-08-03T05:32:11.954Z,26.17
2018-08-03T05:34:37.965Z,26.17
2018-08-03T05:37:03.997Z,26.16
2018-08-03T05:39:30.009Z,26.17
2018-08-03T05:41:56.020Z,26.17
2018-08-03T05:44:22.097Z,26.18
2018-08-03T05:46:48.098Z,26.18
2018-08-03T05:49:14.118Z,26.17
2018-08-03T05:51:40.125Z,26.18
2018-08-03T05:54:06.165Z,26.18
2018-08-03T05:56:32.182Z,26.19
2018-08-03T05:58:58.209Z,26.20
2018-08-03T06:01:24.221Z,26.20
2018-08-03T06:03:50.267Z,26.20
2018-08-03T06:06:16.278Z,26.20
2018-08-03T06:08:42.288Z,26.20
2018-08-03T06:11:08.325Z,26.20
2018-08-03T06:13:34.304Z,26.20
2018-08-03T06:16:00.310Z,26.20
2018-08-03T06:18:26.322Z,26.20
2018-08-03T06:20:52.394Z,26.19
2018-08-03T06:23:18.402Z,26.18
2018-08-03T06:25:44.534Z,26.19
2018-08-03T06:28:10.582Z,26.18
2018-08-03T06:30:36.586Z,26.18
2018-08-03T06:33:02.590Z,26.19
2018-08-03T06:35:28.602Z,26.18
2018-08-03T06:37:54.617Z,26.17
2018-08-03T06:40:20.623Z,26.15
2018-08-03T06:42:46.636Z,26.18
2018-08-03T06:45:12.640Z,26.21
2018-08-03T06:47:38.648Z,26.23
2018-08-03T06:50:04.666Z,26.21
2018-08-03T06:52:30.670Z,26.20
2018-08-03T06:54:56.689Z,26.19
2018-08-03T06:57:22.760Z,26.20
2018-08-03T06:59:48.717Z,26.19
2018-08-03T07:02:14.737Z,26.19
2018-08-03T07:04:40.754Z,26.19
2018-08-03T07:07:06.766Z,26.18
2018-08-03T07:09:32.782Z,26.17
2018-08-03T07:11:58.796Z,26.17
2018-08-03T07:14:24.856Z,26.16
2018-08-03T07:16:50.865Z,26.15
2018-08-03T07:19:16.883Z,26.16
2018-08-03T07:21:42.913Z,26.15
2018-08-03T07:24:08.930Z,26.16
2018-08-03T07:26:34.948Z,26.16
2018-08-03T07:29:00.966Z,26.16
2018-08-03T07:31:26.983Z,26.16
2018-08-03T07:33:52.981Z,26.16
2018-08-03T07:36:19.007Z,26.16
2018-08-03T07:38:45.010Z,26.16
2018-08-03T07:41:11.018Z,26.16
2018-08-03T07:43:37.394Z,26.16
2018-08-03T07:46:03.296Z,26.16
2018-08-03T07:48:29.319Z,26.16
2018-08-03T07:50:55.331Z,26.16
2018-08-03T07:53:21.338Z,26.16
2018-08-03T07:55:47.356Z,26.16
2018-08-03T07:58:13.424Z,26.15
2018-08-03T08:00:39.429Z,26.14
2018-08-03T08:03:05.444Z,26.13
2018-08-03T08:05:31.486Z,26.13
2018-08-03T08:07:57.495Z,26.12
2018-08-03T08:10:23.501Z,26.11
2018-08-03T08:12:49.545Z,26.11
2018-08-03T08:15:15.526Z,26.10
2018-08-03T08:17:41.528Z,26.09
2018-08-03T08:20:07.546Z,26.09
2018-08-03T08:22:33.550Z,26.09
2018-08-03T08:24:59.571Z,26.09
2018-08-03T08:27:25.587Z,26.09
2018-08-03T08:29:51.635Z,26.09
2018-08-03T08:32:17.631Z,26.09
2018-08-03T08:34:43.677Z,26.10
2018-08-03T08:37:09.729Z,26.10
2018-08-03T08:39:35.732Z,26.10
2018-08-03T08:42:01.770Z,26.10
2018-08-03T08:44:27.808Z,26.09
2018-08-03T08:46:53.800Z,26.10
2018-08-03T08:49:19.828Z,26.09
2018-08-03T08:51:45.822Z,26.10
2018-08-03T08:54:11.835Z,26.10
2018-08-03T08:56:37.849Z,26.10
2018-08-03T08:59:03.859Z,26.10
2018-08-03T09:01:29.861Z,26.09
2018-08-03T09:03:55.869Z,26.11
2018-08-03T09:06:21.880Z,26.10
2018-08-03T09:08:47.894Z,26.11
2018-08-03T09:11:13.892Z,26.11
2018-08-03T09:13:39.914Z,26.09
2018-08-03T09:16:05.929Z,26.10
2018-08-03T09:18:31.958Z,26.10
2018-08-03T09:20:57.942Z,26.09
2018-08-03T09:23:23.953Z,26.08
2018-08-03T09:25:49.968Z,26.09
2018-08-03T09:28:15.975Z,26.09
2018-08-03T09:30:42.018Z,26.09
2018-08-03T09:33:08.025Z,26.09
2018-08-03T09:35:34.035Z,26.10
2018-08-03T09:38:00.074Z,26.09
2018-08-03T09:40:26.077Z,26.09
2018-08-03T09:42:52.092Z,26.10
2018-08-03T09:45:18.089Z,26.09
2018-08-03T09:47:44.092Z,26.09
2018-08-03T09:50:10.110Z,26.09
2018-08-03T09:52:36.122Z,26.10
2018-08-03T09:55:02.169Z,26.09
2018-08-03T09:57:28.181Z,26.08
2018-08-03T09:59:54.198Z,26.07
2018-08-03T10:02:20.211Z,26.06
2018-08-03T10:04:46.222Z,26.06
2018-08-03T10:07:12.244Z,26.06
2018-08-03T10:09:38.262Z,26.05
2018-08-03T10:12:04.264Z,26.05
2018-08-03T10:14:30.299Z,26.05
2018-08-03T10:16:56.319Z,26.05
2018-08-03T10:19:22.332Z,26.05
2018-08-03T10:21:48.394Z,26.05
2018-08-03T10:24:14.390Z,26.05
2018-08-03T10:26:40.392Z,26.05
2018-08-03T10:29:06.403Z,26.05
2018-08-03T10:31:32.414Z,26.05
2018-08-03T10:33:58.426Z,26.05
2018-08-03T10:36:24.535Z,26.05
2018-08-03T10:38:50.539Z,26.04
2018-08-03T10:41:16.553Z,26.03
2018-08-03T10:43:42.569Z,26.03
2018-08-03T10:46:08.764Z,26.04
2018-08-03T10:48:34.817Z,26.04
2018-08-03T10:51:00.792Z,26.04
2018-08-03T10:53:26.803Z,26.04
2018-08-03T10:55:52.813Z,26.04
2018-08-03T10:58:18.859Z,26.03
2018-08-03T11:00:44.867Z,26.04
2018-08-03T11:03:10.871Z,26.03
2018-08-03T11:05:36.875Z,26.04
2018-08-03T11:08:02.885Z,26.03
2018-08-03T11:10:28.894Z,26.04
2018-08-03T11:12:54.906Z,26.04
2018-08-03T11:15:20.916Z,26.03
2018-08-03T11:17:46.926Z,26.04
2018-08-03T11:20:12.937Z,26.04
2018-08-03T11:22:38.952Z,26.04
2018-08-03T11:25:04.969Z,26.04
2018-08-03T11:27:30.978Z,26.04
2018-08-03T11:29:56.989Z,26.04
2018-08-03T11:32:22.996Z,26.05
2018-08-03T11:34:49.006Z,26.05
2018-08-03T11:37:15.030Z,26.04
2018-08-03T11:39:41.038Z,26.04
2018-08-03T11:42:07.045Z,26.03
2018-08-03T11:44:33.081Z,26.04
2018-08-03T11:46:59.099Z,26.03
2018-08-03T11:49:25.104Z,26.03
2018-08-03T11:51:51.151Z,26.03
2018-08-03T11:54:17.153Z,26.04
2018-08-03T11:56:43.152Z,26.04
2018-08-03T11:59:09.168Z,26.04
2018-08-03T12:01:35.174Z,26.04
2018-08-03T12:04:01.188Z,26.03
2018-08-03T12:06:27.195Z,26.03
2018-08-03T12:08:53.260Z,26.04
2018-08-03T12:11:19.272Z,26.04
2018-08-03T12:13:45.272Z,26.03
2018-08-03T12:16:11.279Z,26.03
2018-08-03T12:18:37.291Z,26.03
2018-08-03T12:21:03.301Z,26.03
2018-08-03T12:23:29.329Z,26.03
2018-08-03T12:25:55.357Z,26.03
2018-08-03T12:28:21.363Z,26.03
2018-08-03T12:30:47.373Z,26.03
2018-08-03T12:33:13.395Z,26.03
2018-08-03T12:35:39.407Z,26.03
2018-08-03T12:38:05.414Z,26.03
2018-08-03T12:40:31.420Z,26.04
2018-08-03T12:42:57.426Z,26.03
2018-08-03T12:45:23.443Z,26.05
2018-08-03T12:47:49.458Z,26.07
2018-08-03T12:50:15.578Z,26.10
2018-08-03T12:52:41.652Z,26.11
2018-08-03T12:55:07.603Z,26.12
2018-08-03T13:07:54.303Z,26.20
2018-08-03T13:10:20.203Z,26.21
2018-08-03T13:12:46.207Z,26.22
2018-08-03T13:15:12.211Z,26.22
2018-08-03T13:17:38.223Z,26.21
2018-08-03T13:20:04.237Z,26.21
2018-08-03T13:22:30.266Z,26.21
2018-08-03T13:24:56.283Z,26.21
2018-08-03T13:27:22.328Z,26.23
2018-08-03T13:29:48.427Z,26.23
2018-08-03T13:32:14.452Z,26.23
2018-08-03T13:34:40.469Z,26.22
2018-08-03T13:37:06.486Z,26.22
2018-08-03T13:39:32.493Z,26.22
2018-08-03T13:41:58.508Z,26.22
2018-08-03T13:44:24.562Z,26.21
2018-08-03T13:46:50.569Z,26.22
2018-08-03T13:49:16.576Z,26.21
2018-08-03T13:51:42.583Z,26.22
2018-08-03T13:54:08.608Z,26.22
2018-08-03T13:56:34.622Z,26.21
2018-08-03T13:59:00.640Z,26.21
2018-08-03T14:01:26.666Z,26.22
2018-08-03T14:03:52.692Z,26.22
2018-08-03T14:06:18.677Z,26.24
2018-08-03T14:08:44.700Z,26.23
2018-08-03T14:11:10.762Z,26.23
2018-08-03T14:13:36.775Z,26.23
2018-08-03T14:16:02.792Z,26.23
2018-08-03T14:18:28.800Z,26.24
2018-08-03T14:20:54.805Z,26.24
2018-08-03T14:23:20.827Z,26.25
2018-08-03T14:25:46.839Z,26.28
2018-08-03T14:28:12.852Z,26.30
2018-08-03T14:30:38.886Z,26.32
2018-08-03T14:33:04.896Z,26.32
2018-08-03T14:35:30.921Z,26.31
2018-08-03T14:37:56.932Z,26.32
2018-08-03T14:40:22.943Z,26.32
2018-08-03T14:42:49.234Z,26.34
2018-08-03T14:45:15.251Z,26.34
2018-08-03T14:47:41.307Z,26.34
2018-08-03T14:50:07.359Z,26.36
2018-08-03T14:52:33.330Z,26.39
2018-08-03T14:54:59.360Z,26.40
2018-08-03T14:57:25.391Z,26.42
2018-08-03T14:59:51.398Z,26.45
2018-08-03T15:02:17.428Z,26.47
2018-08-03T15:04:43.446Z,26.44
2018-08-03T15:07:09.513Z,26.44
2018-08-03T15:09:35.543Z,26.43
2018-08-03T15:12:01.551Z,26.46
2018-08-03T15:14:27.564Z,26.46
2018-08-03T15:16:53.592Z,26.47
2018-08-03T15:19:19.633Z,26.48
2018-08-03T15:21:45.651Z,26.49
2018-08-03T15:24:11.689Z,26.48
2018-08-03T15:26:37.845Z,26.49
2018-08-03T15:29:03.927Z,26.48
2018-08-03T15:31:29.899Z,26.47
2018-08-03T15:33:55.929Z,26.47
2018-08-03T15:36:21.958Z,26.48
2018-08-03T15:38:47.976Z,26.48
2018-08-03T15:41:14.047Z,26.49
2018-08-03T15:43:40.080Z,26.49
2018-08-03T15:46:06.134Z,26.50
2018-08-03T15:48:32.187Z,26.49
2018-08-03T15:50:58.210Z,26.50
2018-08-03T15:53:24.891Z,26.52
2018-08-03T15:58:17.171Z,26.54
2018-08-03T16:00:43.398Z,26.54
2018-08-03T16:03:09.445Z,26.53
2018-08-03T16:05:35.514Z,26.53
2018-08-03T16:08:01.493Z,26.53
2018-08-03T16:10:27.548Z,26.55
2018-08-03T16:12:53.602Z,26.57
2018-08-03T16:15:19.560Z,26.59
2018-08-03T16:17:45.661Z,26.59
2018-08-03T16:20:11.664Z,26.61
2018-08-03T16:22:37.694Z,26.64
2018-08-03T16:25:03.891Z,26.63
2018-08-03T16:27:29.928Z,26.64
2018-08-03T16:29:56.096Z,26.66
2018-08-03T16:32:22.113Z,26.67
2018-08-03T16:34:48.122Z,26.68
2018-08-03T16:37:14.132Z,26.70
2018-08-03T16:39:40.198Z,26.70
2018-08-03T16:42:06.237Z,26.70
2018-08-03T16:44:32.251Z,26.71
2018-08-03T16:46:58.258Z,26.71
2018-08-03T16:49:24.265Z,26.71
2018-08-03T16:51:50.274Z,26.70
2018-08-03T16:54:16.284Z,26.71
2018-08-03T16:56:42.346Z,26.70
2018-08-03T16:59:08.351Z,26.70
2018-08-03T17:01:34.380Z,26.69
2018-08-03T17:04:00.431Z,26.69
2018-08-03T17:06:26.437Z,26.67
2018-08-03T17:08:52.449Z,26.68
2018-08-03T17:11:18.461Z,26.65
2018-08-03T17:13:44.472Z,26.65
2018-08-03T17:16:10.498Z,26.64
2018-08-03T17:18:36.508Z,26.60
2018-08-03T17:21:02.537Z,26.57
2018-08-03T17:23:28.554Z,26.56
2018-08-03T17:25:54.562Z,26.55
2018-08-03T17:28:20.573Z,26.55
2018-08-03T17:30:46.577Z,26.55
2018-08-03T17:33:12.601Z,26.53
2018-08-03T17:35:38.611Z,26.53
2018-08-03T17:38:04.616Z,26.53
2018-08-03T17:40:30.632Z,26.53
2018-08-03T17:42:56.784Z,26.51
2018-08-03T17:45:22.688Z,26.52
2018-08-03T17:47:48.922Z,26.50
2018-08-03T17:50:14.930Z,26.47
2018-08-03T17:52:40.955Z,26.45
2018-08-03T17:55:06.966Z,26.44
2018-08-03T17:57:33.000Z,26.41
2018-08-03T17:59:59.009Z,26.42
2018-08-03T18:02:25.020Z,26.41
2018-08-03T18:04:51.031Z,26.41
2018-08-03T18:07:17.049Z,26.39
2018-08-03T18:09:43.070Z,26.39
2018-08-03T18:12:09.104Z,26.39
2018-08-03T18:14:35.176Z,26.38
2018-08-03T18:17:01.181Z,26.39
2018-08-03T18:19:27.193Z,26.38
2018-08-03T18:21:53.231Z,26.39
2018-08-03T18:24:19.243Z,26.38
2018-08-03T18:26:45.274Z,26.39
2018-08-03T18:29:11.388Z,26.41
2018-08-03T18:31:37.493Z,26.41
2018-08-03T18:34:03.513Z,26.40
2018-08-03T18:36:29.525Z,26.39
2018-08-03T18:38:55.561Z,26.39
2018-08-03T18:41:21.584Z,26.39
2018-08-03T18:43:47.600Z,26.39
2018-08-03T18:46:13.662Z,26.40
2018-08-03T18:48:39.636Z,26.37
2018-08-03T18:51:05.685Z,26.37
2018-08-03T18:53:31.713Z,26.38
2018-08-03T18:55:57.715Z,26.37
2018-08-03T18:58:24.010Z,26.36
2018-08-03T19:00:50.025Z,26.36
2018-08-03T19:03:16.039Z,26.36
2018-08-03T19:05:42.092Z,26.35
2018-08-03T19:08:11.295Z,26.35
2018-08-03T19:10:37.479Z,26.36
2018-08-03T19:13:03.523Z,26.35
2018-08-03T19:15:29.579Z,26.35
2018-08-03T19:17:55.595Z,26.34
2018-08-03T19:20:21.606Z,26.35
2018-08-03T19:22:47.616Z,26.35
2018-08-03T19:25:13.644Z,26.34
2018-08-03T19:27:39.662Z,26.34
2018-08-03T19:30:05.729Z,26.34
2018-08-03T19:32:31.749Z,26.33
2018-08-03T19:34:57.756Z,26.32
2018-08-03T19:37:23.768Z,26.32
2018-08-03T19:39:49.799Z,26.31
2018-08-03T19:42:15.822Z,26.31
2018-08-03T19:44:41.829Z,26.31
2018-08-03T19:47:07.891Z,26.31
2018-08-03T19:49:33.854Z,26.31
2018-08-03T19:51:59.862Z,26.30
2018-08-03T19:54:25.861Z,26.30
2018-08-03T19:56:51.869Z,26.30
2018-08-03T19:59:17.914Z,26.29
2018-08-03T20:01:43.886Z,26.29
2018-08-03T20:04:09.893Z,26.29
2018-08-03T20:06:35.893Z,26.28
2018-08-03T20:09:01.902Z,26.28
2018-08-03T20:11:27.909Z,26.28
2018-08-03T20:13:53.948Z,26.28
2018-08-03T20:16:19.961Z,26.28
2018-08-03T20:18:45.971Z,26.28
2018-08-03T20:21:11.973Z,26.28
2018-08-03T20:23:38.002Z,26.27
2018-08-03T20:26:03.987Z,26.27
2018-08-03T20:28:29.997Z,26.26
2018-08-03T20:30:55.996Z,26.26
2018-08-03T20:33:22.015Z,26.26
2018-08-03T20:35:48.024Z,26.26
2018-08-03T20:38:14.029Z,26.26
2018-08-03T20:40:40.040Z,26.26
2018-08-03T20:43:06.051Z,26.27
2018-08-03T20:45:32.061Z,26.29
2018-08-03T20:47:58.072Z,26.29
2018-08-03T20:50:24.084Z,26.29
2018-08-03T20:52:50.097Z,26.30
2018-08-03T20:55:16.116Z,26.31
2018-08-03T20:57:42.113Z,26.32
2018-08-03T21:00:08.118Z,26.34
2018-08-03T21:02:34.130Z,26.33
2018-08-03T21:05:00.169Z,26.33
2018-08-03T21:07:26.152Z,26.34
2018-08-03T21:09:52.194Z,26.34
2018-08-03T21:12:18.203Z,26.34
2018-08-03T21:14:44.204Z,26.34
2018-08-03T21:17:10.213Z,26.35
2018-08-03T21:19:36.229Z,26.35
2018-08-03T21:22:02.244Z,26.35
2018-08-03T21:24:28.250Z,26.34
2018-08-03T21:26:54.257Z,26.34
2018-08-03T21:29:20.270Z,26.34
2018-08-03T21:31:46.284Z,26.35
2018-08-03T21:34:12.291Z,26.35
2018-08-03T21:36:38.306Z,26.35
2018-08-03T21:39:04.308Z,26.34
2018-08-03T21:41:30.319Z,26.32
2018-08-03T21:43:56.355Z,26.32
2018-08-03T21:46:22.383Z,26.31
2018-08-03T21:48:48.360Z,26.31
2018-08-03T21:51:14.362Z,26.31
2018-08-03T21:53:40.374Z,26.29
2018-08-03T21:56:06.388Z,26.29
2018-08-03T21:58:32.399Z,26.28
2018-08-03T22:00:58.405Z,26.29
2018-08-03T22:03:24.416Z,26.29
2018-08-03T22:05:50.448Z,26.28
2018-08-03T22:08:16.448Z,26.29
2018-08-03T22:10:42.519Z,26.28
2018-08-03T22:13:08.521Z,26.29
2018-08-03T22:15:34.558Z,26.29
2018-08-03T22:18:00.595Z,26.28
2018-08-03T22:20:26.600Z,26.28
2018-08-03T22:22:52.627Z,26.28
2018-08-03T22:25:18.637Z,26.27
2018-08-03T22:27:44.672Z,26.27
2018-08-03T22:32:36.729Z,26.28
2018-08-03T22:35:02.695Z,26.27
2018-08-03T22:37:28.704Z,26.27
2018-08-03T22:39:54.713Z,26.27
2018-08-03T22:42:20.724Z,26.27
2018-08-03T22:44:46.736Z,26.27
2018-08-03T22:47:12.740Z,26.26
2018-08-03T22:49:38.780Z,26.27
2018-08-03T22:52:04.755Z,26.26
2018-08-03T22:54:30.765Z,26.26
2018-08-03T22:56:56.769Z,26.26
2018-08-03T22:59:22.776Z,26.25
2018-08-03T23:01:48.780Z,26.25
2018-08-03T23:04:14.794Z,26.25
2018-08-03T23:06:40.806Z,26.25
2018-08-03T23:09:06.820Z,26.25
2018-08-03T23:11:32.825Z,26.25
2018-08-03T23:13:58.847Z,26.25
2018-08-03T23:16:24.838Z,26.25
2018-08-03T23:18:50.847Z,26.25
2018-08-03T23:21:16.859Z,26.25
2018-08-03T23:23:42.870Z,26.25
2018-08-03T23:26:08.876Z,26.24
2018-08-03T23:28:34.880Z,26.25
2018-08-03T23:31:00.895Z,26.25
2018-08-03T23:33:26.932Z,26.24
2018-08-03T23:35:52.941Z,26.24
2018-08-03T23:38:18.975Z,26.24
2018-08-03T23:40:44.978Z,26.24
2018-08-03T23:43:10.992Z,26.24
2018-08-03T23:45:37.002Z,26.23
2018-08-03T23:48:03.014Z,26.24
2018-08-03T23:50:29.015Z,26.23
2018-08-03T23:52:55.026Z,26.24
2018-08-03T23:55:21.036Z,26.23
2018-08-03T23:57:47.048Z,26.23
